createdAt,value
2023-01-15T00:01:48.868Z,95994.78
2023-01-15T00:04:15.413Z,95986.41
2023-01-15T00:06:42.530Z,95988.28
2023-01-15T00:09:13.328Z,95986.41
2023-01-15T00:11:39.859Z,95986.78
2023-01-15T00:14:06.445Z,95977.50
2023-01-15T00:16:32.942Z,95985.34
2023-01-15T00:19:01.119Z,95987.13
2023-01-15T00:21:28.444Z,95978.66
2023-01-15T00:24:13.865Z,95972.34
2023-01-15T00:26:59.036Z,95976.50
2023-01-15T00:29:26.041Z,95964.38
2023-01-15T00:32:12.763Z,95966.50
2023-01-15T00:34:39.358Z,95968.78
2023-01-15T00:37:05.915Z,95967.16
2023-01-15T00:39:33.525Z,95964.75
2023-01-15T00:42:00.086Z,95964.03
2023-01-15T00:44:26.579Z,95967.38
2023-01-15T00:46:53.159Z,95967.16
2023-01-15T00:49:19.654Z,95946.41
2023-01-15T00:51:46.283Z,95947.78
2023-01-15T00:57:35.039Z,95938.75
2023-01-15T01:00:01.599Z,95937.19
2023-01-15T01:02:28.175Z,95934.47
2023-01-15T01:04:54.806Z,95929.69
2023-01-15T01:07:21.302Z,95929.69
2023-01-15T01:09:48.754Z,95933.28
2023-01-15T01:12:15.311Z,95929.00
2023-01-15T01:14:41.972Z,95925.44
2023-01-15T01:17:08.528Z,95921.50
2023-01-15T01:19:36.629Z,95921.88
2023-01-15T01:22:03.165Z,95921.38
2023-01-15T01:24:29.706Z,95912.78
2023-01-15T01:26:57.200Z,95907.53
2023-01-15T01:29:24.577Z,95901.91
2023-01-15T01:31:51.423Z,95910.38
2023-01-15T01:34:18.163Z,95903.59
2023-01-15T01:36:45.112Z,95899.41
2023-01-15T01:39:16.226Z,95896.31
2023-01-15T01:41:43.235Z,95896.22
2023-01-15T01:44:28.669Z,95888.09
2023-01-15T01:46:55.176Z,95882.50
2023-01-15T01:49:21.875Z,95892.88
2023-01-15T01:51:54.715Z,95891.59
2023-01-15T01:54:21.621Z,95881.94
2023-01-15T01:56:49.931Z,95874.31
2023-01-15T01:59:17.767Z,95871.44
2023-01-15T02:01:44.559Z,95867.03
2023-01-15T02:04:11.811Z,95869.63
2023-01-15T02:06:39.437Z,95856.44
2023-01-15T02:09:05.959Z,95856.91
2023-01-15T02:11:33.142Z,95846.88
2023-01-15T02:14:13.006Z,95847.00
2023-01-15T02:16:46.112Z,95841.53
2023-01-15T02:19:18.581Z,95829.59
2023-01-15T02:21:52.265Z,95832.22
2023-01-15T02:24:27.405Z,95823.53
2023-01-15T02:27:28.747Z,95825.66
2023-01-15T02:29:55.457Z,95824.63
2023-01-15T02:32:40.711Z,95818.06
2023-01-15T02:35:11.751Z,95815.66
2023-01-15T02:37:41.856Z,95807.69
2023-01-15T02:40:09.430Z,95792.66
2023-01-15T02:42:36.879Z,95796.00
2023-01-15T02:45:04.825Z,95797.66
2023-01-15T02:47:33.960Z,95787.28
2023-01-15T02:50:02.576Z,95780.47
2023-01-15T02:52:32.861Z,95771.91
2023-01-15T02:55:02.949Z,95768.47
2023-01-15T02:57:33.003Z,95773.47
2023-01-15T03:00:01.779Z,95765.59
2023-01-15T03:02:32.020Z,95766.78
2023-01-15T03:05:06.145Z,95762.63
2023-01-15T03:07:37.484Z,95756.78
2023-01-15T03:10:05.656Z,95752.72
2023-01-15T03:12:58.275Z,95754.41
2023-01-15T03:15:44.751Z,95744.50
2023-01-15T03:18:13.135Z,95747.63
2023-01-15T03:20:42.881Z,95747.94
2023-01-15T03:23:11.453Z,95744.47
2023-01-15T03:25:40.762Z,95746.03
2023-01-15T03:28:09.408Z,95742.72
2023-01-15T03:30:35.921Z,95737.22
2023-01-15T03:33:02.539Z,95733.16
2023-01-15T03:35:47.590Z,95722.94
2023-01-15T03:38:15.057Z,95719.00
2023-01-15T03:40:50.418Z,95713.53
2023-01-15T03:43:38.584Z,95700.66
2023-01-15T03:46:13.972Z,95697.56
2023-01-15T03:48:59.226Z,95697.78
2023-01-15T03:51:33.804Z,95693.50
2023-01-15T03:54:02.884Z,95684.00
2023-01-15T03:56:38.356Z,95679.09
2023-01-15T03:59:04.839Z,95678.84
2023-01-15T04:01:35.002Z,95682.44
2023-01-15T04:04:02.651Z,95675.66
2023-01-15T04:06:30.934Z,95672.06
2023-01-15T04:08:57.889Z,95667.06
2023-01-15T04:11:25.517Z,95676.25
2023-01-15T04:13:52.415Z,95678.28
2023-01-15T04:16:25.555Z,95674.69
2023-01-15T04:18:52.692Z,95676.13
2023-01-15T04:21:19.267Z,95693.16
2023-01-15T04:23:46.294Z,95687.28
2023-01-15T04:26:13.284Z,95682.53
2023-01-15T04:28:40.004Z,95682.53
2023-01-15T04:31:06.662Z,95666.34
2023-01-15T04:33:33.218Z,95665.63
2023-01-15T04:36:03.374Z,95662.78
2023-01-15T04:38:29.920Z,95664.44
2023-01-15T04:41:18.760Z,95661.94
2023-01-15T04:44:03.848Z,95650.03
2023-01-15T04:46:30.496Z,95648.25
2023-01-15T04:48:56.992Z,95651.13
2023-01-15T04:51:23.519Z,95648.25
2023-01-15T04:53:50.047Z,95653.00
2023-01-15T04:56:16.577Z,95646.13
2023-01-15T04:58:43.361Z,95635.03
2023-01-15T05:01:13.500Z,95638.84
2023-01-15T05:03:40.190Z,95641.59
2023-01-15T05:06:06.856Z,95634.44
2023-01-15T05:08:33.915Z,95632.88
2023-01-15T05:11:04.677Z,95623.84
2023-01-15T05:13:33.462Z,95623.22
2023-01-15T05:16:09.858Z,95610.38
2023-01-15T05:18:36.586Z,95607.63
2023-01-15T05:21:03.594Z,95616.44
2023-01-15T05:23:30.261Z,95613.00
2023-01-15T05:25:56.819Z,95603.00
2023-01-15T05:28:23.311Z,95603.84
2023-01-15T05:30:49.854Z,95602.28
2023-01-15T05:33:16.349Z,95598.25
2023-01-15T05:35:42.868Z,95599.19
2023-01-15T05:38:09.355Z,95596.44
2023-01-15T05:40:36.228Z,95597.41
2023-01-15T05:43:02.733Z,95597.28
2023-01-15T05:45:29.250Z,95594.19
2023-01-15T05:47:55.755Z,95583.59
2023-01-15T05:50:22.255Z,95581.47
2023-01-15T05:52:48.754Z,95579.09
2023-01-15T05:55:15.249Z,95578.72
2023-01-15T05:57:41.740Z,95569.31
2023-01-15T06:00:08.657Z,95563.59
2023-01-15T06:02:35.151Z,95570.59
2023-01-15T06:05:01.676Z,95564.19
2023-01-15T06:07:28.216Z,95571.81
2023-01-15T06:09:54.791Z,95569.81
2023-01-15T06:12:21.298Z,95572.19
2023-01-15T06:14:47.788Z,95575.16
2023-01-15T06:17:15.241Z,95569.69
2023-01-15T06:19:41.719Z,95573.00
2023-01-15T06:22:10.243Z,95561.56
2023-01-15T06:24:37.508Z,95561.81
2023-01-15T06:27:04.064Z,95555.97
2023-01-15T06:29:31.130Z,95558.47
2023-01-15T06:31:57.595Z,95550.22
2023-01-15T06:34:24.097Z,95549.16
2023-01-15T06:36:50.605Z,95552.22
2023-01-15T06:39:17.143Z,95544.38
2023-01-15T06:42:18.940Z,95553.88
2023-01-15T06:45:03.910Z,95562.22
2023-01-15T06:47:30.765Z,95559.97
2023-01-15T06:49:58.120Z,95558.47
2023-01-15T06:52:25.569Z,95558.09
2023-01-15T06:54:52.366Z,95551.44
2023-01-15T06:57:19.059Z,95553.94
2023-01-15T06:59:45.678Z,95551.09
2023-01-15T07:02:12.309Z,95556.00
2023-01-15T07:04:38.831Z,95556.56
2023-01-15T07:07:05.420Z,95559.31
2023-01-15T07:09:31.986Z,95569.31
2023-01-15T07:11:58.559Z,95557.03
2023-01-15T07:14:26.822Z,95565.63
2023-01-15T07:16:53.470Z,95550.34
2023-01-15T07:19:20.398Z,95549.75
2023-01-15T07:21:47.018Z,95545.81
2023-01-15T07:24:14.103Z,95545.31
2023-01-15T07:26:41.140Z,95545.28
2023-01-15T07:29:07.736Z,95544.16
2023-01-15T07:31:34.523Z,95537.94
2023-01-15T07:34:01.183Z,95527.50
2023-01-15T07:36:27.902Z,95528.28
2023-01-15T07:38:54.517Z,95532.69
2023-01-15T07:41:39.698Z,95528.41
2023-01-15T07:44:24.829Z,95527.06
2023-01-15T07:47:09.937Z,95529.03
2023-01-15T07:49:49.089Z,95511.06
2023-01-15T07:52:20.424Z,95505.44
2023-01-15T07:54:47.750Z,95494.81
2023-01-15T07:57:16.000Z,95492.94
2023-01-15T07:59:42.589Z,95490.31
2023-01-15T08:02:09.426Z,95492.81
2023-01-15T08:04:36.030Z,95488.66
2023-01-15T08:07:03.386Z,95480.53
2023-01-15T08:09:30.401Z,95487.81
2023-01-15T08:12:17.410Z,95488.66
2023-01-15T08:15:02.643Z,95492.72
2023-01-15T08:17:29.199Z,95498.91
2023-01-15T08:19:55.890Z,95506.00
2023-01-15T08:22:22.458Z,95505.09
2023-01-15T08:24:49.044Z,95499.03
2023-01-15T08:27:15.541Z,95489.56
2023-01-15T08:29:42.091Z,95490.59
2023-01-15T08:32:09.021Z,95467.84
2023-01-15T08:34:35.548Z,95472.97
2023-01-15T08:37:02.101Z,95482.22
2023-01-15T08:39:28.885Z,95478.75
2023-01-15T08:41:56.105Z,95487.19
2023-01-15T08:44:23.764Z,95488.31
2023-01-15T08:46:50.901Z,95493.91
2023-01-15T08:49:17.877Z,95497.34
2023-01-15T08:51:45.109Z,95489.03
2023-01-15T08:54:12.369Z,95485.88
2023-01-15T08:56:38.914Z,95473.69
2023-01-15T08:59:06.297Z,95477.59
2023-01-15T09:01:32.969Z,95470.66
2023-01-15T09:03:59.637Z,95469.81
2023-01-15T09:06:26.444Z,95472.47
2023-01-15T09:08:53.255Z,95464.28
2023-01-15T09:11:19.796Z,95456.47
2023-01-15T09:13:50.399Z,95458.66
2023-01-15T09:16:17.510Z,95459.34
2023-01-15T09:18:44.423Z,95452.41
2023-01-15T09:21:11.039Z,95451.41
2023-01-15T09:23:37.774Z,95447.66
2023-01-15T09:26:06.261Z,95439.34
2023-01-15T09:28:33.523Z,95432.53
2023-01-15T09:31:00.598Z,95426.38
2023-01-15T09:33:27.179Z,95414.28
2023-01-15T09:35:53.765Z,95416.03
2023-01-15T09:38:21.363Z,95408.38
2023-01-15T09:40:52.508Z,95412.06
2023-01-15T09:43:44.969Z,95416.31
2023-01-15T09:46:20.531Z,95409.19
2023-01-15T09:48:47.061Z,95405.19
2023-01-15T09:51:19.390Z,95404.59
2023-01-15T09:53:54.501Z,95399.09
2023-01-15T09:56:23.564Z,95401.56
2023-01-15T09:58:50.781Z,95392.16
2023-01-15T10:01:19.540Z,95384.09
2023-01-15T10:03:52.701Z,95377.00
2023-01-15T10:06:42.366Z,95383.94
2023-01-15T10:09:14.773Z,95373.75
2023-01-15T10:12:06.089Z,95377.75
2023-01-15T10:14:39.696Z,95380.09
2023-01-15T10:17:15.115Z,95378.56
2023-01-15T10:19:44.868Z,95373.91
2023-01-15T10:22:17.522Z,95378.03
2023-01-15T10:24:48.973Z,95372.44
2023-01-15T10:27:18.287Z,95360.13
2023-01-15T10:30:03.193Z,95360.13
2023-01-15T10:32:38.319Z,95359.25
2023-01-15T10:35:17.110Z,95349.84
2023-01-15T10:38:05.514Z,95352.09
2023-01-15T10:40:40.715Z,95333.47
2023-01-15T10:43:19.516Z,95336.38
2023-01-15T10:45:46.053Z,95330.28
2023-01-15T10:48:17.626Z,95322.03
2023-01-15T10:50:44.220Z,95322.41
2023-01-15T10:53:13.848Z,95312.44
2023-01-15T10:55:44.126Z,95308.03
2023-01-15T10:58:21.511Z,95309.81
2023-01-15T11:00:51.719Z,95314.94
2023-01-15T11:03:21.123Z,95315.66
2023-01-15T11:05:47.852Z,95306.44
2023-01-15T11:09:02.257Z,95308.16
2023-01-15T11:11:18.427Z,95295.00
2023-01-15T11:14:15.580Z,95293.69
2023-01-15T11:17:02.162Z,95294.50
2023-01-15T11:19:40.450Z,95295.19
2023-01-15T11:22:12.269Z,95290.28
2023-01-15T11:24:45.588Z,95284.16
2023-01-15T11:27:15.477Z,95264.81
2023-01-15T11:29:44.135Z,95265.31
2023-01-15T11:32:22.042Z,95264.81
2023-01-15T11:34:58.551Z,95260.00
2023-01-15T11:37:25.512Z,95255.06
2023-01-15T11:39:55.731Z,95252.06
2023-01-15T11:43:00.544Z,95243.16
2023-01-15T11:45:45.411Z,95254.69
2023-01-15T11:48:37.777Z,95246.56
2023-01-15T11:51:08.808Z,95240.78
2023-01-15T11:53:39.129Z,95235.81
2023-01-15T11:56:08.775Z,95224.25
2023-01-15T11:58:46.984Z,95233.19
2023-01-15T12:01:21.275Z,95234.53
2023-01-15T12:03:48.024Z,95233.06
2023-01-15T12:06:15.059Z,95226.72
2023-01-15T12:08:45.972Z,95227.91
2023-01-15T12:11:26.997Z,95229.75
2023-01-15T12:14:24.652Z,95215.69
2023-01-15T12:17:02.703Z,95196.81
2023-01-15T12:19:39.482Z,95193.81
2023-01-15T12:22:06.003Z,95205.41
2023-01-15T12:24:40.270Z,95200.78
2023-01-15T12:27:19.918Z,95208.34
2023-01-15T12:29:49.929Z,95224.63
2023-01-15T12:32:18.490Z,95216.03
2023-01-15T12:34:54.200Z,95207.09
2023-01-15T12:37:27.124Z,95197.97
2023-01-15T12:39:59.812Z,95206.09
2023-01-15T12:42:46.287Z,95203.31
2023-01-15T12:45:16.560Z,95190.59
2023-01-15T12:47:43.074Z,95188.25
2023-01-15T12:50:27.965Z,95200.53
2023-01-15T12:52:59.144Z,95194.22
2023-01-15T12:55:28.415Z,95197.56
2023-01-15T12:58:00.511Z,95198.88
2023-01-15T13:00:39.456Z,95203.31
2023-01-15T13:03:05.990Z,95177.06
2023-01-15T13:05:47.824Z,95176.53
2023-01-15T13:08:23.396Z,95192.25
2023-01-15T13:10:50.541Z,95201.00
2023-01-15T13:13:23.053Z,95196.34
2023-01-15T13:16:04.283Z,95194.56
2023-01-15T13:18:30.775Z,95194.84
2023-01-15T13:20:58.962Z,95187.59
2023-01-15T13:23:31.707Z,95185.13
2023-01-15T13:25:58.217Z,95180.97
2023-01-15T13:28:34.462Z,95178.81
2023-01-15T13:31:05.848Z,95174.06
2023-01-15T13:33:32.345Z,95174.84
2023-01-15T13:36:11.365Z,95184.72
2023-01-15T13:38:41.873Z,95189.34
2023-01-15T13:41:08.744Z,95186.84
2023-01-15T13:43:40.387Z,95175.63
2023-01-15T13:46:19.383Z,95180.31
2023-01-15T13:48:47.798Z,95169.56
2023-01-15T13:51:37.533Z,95172.88
2023-01-15T13:54:04.353Z,95181.56
2023-01-15T13:56:32.411Z,95188.81
2023-01-15T13:59:00.154Z,95180.72
2023-01-15T14:01:37.125Z,95177.63
2023-01-15T14:04:04.213Z,95188.34
2023-01-15T14:06:36.549Z,95193.25
2023-01-15T14:09:05.256Z,95202.00
2023-01-15T14:11:36.603Z,95208.25
2023-01-15T14:14:29.529Z,95198.50
2023-01-15T14:17:12.549Z,95199.50
2023-01-15T14:19:46.568Z,95199.34
2023-01-15T14:22:25.251Z,95204.28
2023-01-15T14:24:54.530Z,95211.22
2023-01-15T14:27:41.313Z,95218.34
2023-01-15T14:30:20.622Z,95217.84
2023-01-15T14:32:56.081Z,95228.19
2023-01-15T14:35:24.375Z,95242.84
2023-01-15T14:37:51.454Z,95235.09
2023-01-15T14:40:25.440Z,95236.41
2023-01-15T14:43:02.874Z,95249.59
2023-01-15T14:45:37.193Z,95244.47
2023-01-15T14:48:17.771Z,95253.06
2023-01-15T14:50:44.884Z,95244.94
2023-01-15T14:53:11.362Z,95261.91
2023-01-15T14:55:39.868Z,95264.88
2023-01-15T14:58:14.547Z,95253.19
2023-01-15T15:00:44.056Z,95252.16
2023-01-15T15:03:16.471Z,95256.25
2023-01-15T15:05:44.507Z,95258.03
2023-01-15T15:08:14.815Z,95268.81
2023-01-15T15:10:43.802Z,95258.03
2023-01-15T15:13:19.223Z,95249.31
2023-01-15T15:16:04.380Z,95250.44
2023-01-15T15:18:42.966Z,95242.84
2023-01-15T15:21:32.734Z,95243.09
2023-01-15T15:24:02.996Z,95243.97
2023-01-15T15:26:30.716Z,95243.81
2023-01-15T15:29:01.771Z,95256.16
2023-01-15T15:31:30.926Z,95263.56
2023-01-15T15:33:58.613Z,95278.03
2023-01-15T15:36:27.673Z,95276.00
2023-01-15T15:38:54.171Z,95278.94
2023-01-15T15:41:42.405Z,95286.31
2023-01-15T15:44:31.962Z,95295.88
2023-01-15T15:47:16.856Z,95297.31
2023-01-15T15:49:43.368Z,95297.63
2023-01-15T15:52:15.664Z,95295.16
2023-01-15T15:54:42.151Z,95297.31
2023-01-15T15:57:13.989Z,95294.94
2023-01-15T15:59:51.254Z,95300.75
2023-01-15T16:02:34.470Z,95307.16
2023-01-15T16:05:02.828Z,95322.00
2023-01-15T16:07:33.710Z,95329.47
2023-01-15T16:10:07.297Z,95333.47
2023-01-15T16:12:36.521Z,95329.75
2023-01-15T16:15:04.093Z,95333.75
2023-01-15T16:17:31.032Z,95337.06
2023-01-15T16:19:58.005Z,95352.50
2023-01-15T16:22:24.673Z,95343.06
2023-01-15T16:24:55.982Z,95346.91
2023-01-15T16:27:24.141Z,95360.47
2023-01-15T16:29:53.637Z,95361.91
2023-01-15T16:32:39.357Z,95371.56
2023-01-15T16:35:07.742Z,95374.50
2023-01-15T16:37:35.852Z,95375.03
2023-01-15T16:40:03.517Z,95366.22
2023-01-15T16:42:35.401Z,95370.53
2023-01-15T16:45:04.747Z,95370.69
2023-01-15T16:47:36.077Z,95388.59
2023-01-15T16:50:25.339Z,95381.97
2023-01-15T16:52:53.038Z,95396.56
2023-01-15T16:55:34.632Z,95398.81
2023-01-15T16:58:13.181Z,95409.66
2023-01-15T17:00:43.713Z,95422.66
2023-01-15T17:03:23.457Z,95417.78
2023-01-15T17:05:57.611Z,95412.91
2023-01-15T17:08:30.954Z,95417.59
2023-01-15T17:11:01.795Z,95409.97
2023-01-15T17:13:33.185Z,95417.66
2023-01-15T17:16:07.293Z,95430.13
2023-01-15T17:18:34.145Z,95432.91
2023-01-15T17:21:01.077Z,95437.50
2023-01-15T17:23:28.597Z,95444.72
2023-01-15T17:25:55.576Z,95454.19
2023-01-15T17:28:24.623Z,95447.56
2023-01-15T17:30:52.793Z,95442.97
2023-01-15T17:33:20.016Z,95447.09
2023-01-15T17:35:48.886Z,95439.22
2023-01-15T17:38:16.072Z,95439.91
2023-01-15T17:40:43.112Z,95443.66
2023-01-15T17:43:12.435Z,95444.31
2023-01-15T17:45:39.056Z,95450.09
2023-01-15T17:48:08.927Z,95447.06
2023-01-15T17:50:37.043Z,95452.81
2023-01-15T17:53:04.774Z,95460.16
2023-01-15T17:55:49.711Z,95463.91
2023-01-15T17:58:35.132Z,95456.72
2023-01-15T18:01:22.729Z,95458.06
2023-01-15T18:04:12.321Z,95472.72
2023-01-15T18:06:40.170Z,95474.59
2023-01-15T18:09:07.919Z,95464.06
2023-01-15T18:11:34.565Z,95472.44
2023-01-15T18:14:01.057Z,95472.34
2023-01-15T18:16:28.231Z,95478.91
2023-01-15T18:18:54.984Z,95485.97
2023-01-15T18:21:21.880Z,95485.25
2023-01-15T18:23:48.481Z,95483.31
2023-01-15T18:26:15.030Z,95478.59
2023-01-15T18:28:41.685Z,95487.81
2023-01-15T18:31:08.564Z,95499.69
2023-01-15T18:33:35.252Z,95496.09
2023-01-15T18:36:09.180Z,95491.94
2023-01-15T18:38:40.487Z,95494.72
2023-01-15T18:41:08.003Z,95497.25
2023-01-15T18:43:53.192Z,95500.84
2023-01-15T18:46:43.547Z,95483.47
2023-01-15T18:49:10.119Z,95487.16
2023-01-15T18:51:36.655Z,95490.97
2023-01-15T18:54:04.816Z,95490.25
2023-01-15T18:56:40.470Z,95495.69
2023-01-15T18:59:08.292Z,95501.38
2023-01-15T19:01:35.028Z,95491.31
2023-01-15T19:04:01.799Z,95488.69
2023-01-15T19:06:28.320Z,95486.81
2023-01-15T19:08:54.855Z,95484.94
2023-01-15T19:11:21.346Z,95478.28
2023-01-15T19:14:07.873Z,95485.97
2023-01-15T19:16:52.773Z,95483.94
2023-01-15T19:19:19.333Z,95486.13
2023-01-15T19:21:46.960Z,95483.31
2023-01-15T19:24:13.715Z,95478.00
2023-01-15T19:26:40.269Z,95479.00
2023-01-15T19:29:06.807Z,95483.88
2023-01-15T19:31:37.195Z,95477.63
2023-01-15T19:34:32.076Z,95473.72
2023-01-15T19:36:54.731Z,95472.63
2023-01-15T19:39:21.584Z,95480.84
2023-01-15T19:42:06.518Z,95479.81
2023-01-15T19:44:51.787Z,95482.06
2023-01-15T19:47:40.885Z,95478.50
2023-01-15T19:50:20.354Z,95486.56
2023-01-15T19:52:46.942Z,95491.13
2023-01-15T19:55:15.164Z,95490.16
2023-01-15T19:57:42.660Z,95498.22
2023-01-15T20:00:11.224Z,95500.72
2023-01-15T20:02:37.807Z,95492.31
2023-01-15T20:05:05.364Z,95494.50
2023-01-15T20:07:32.168Z,95494.41
2023-01-15T20:09:58.749Z,95501.69
2023-01-15T20:12:44.026Z,95499.50
2023-01-15T20:15:10.640Z,95501.97
2023-01-15T20:17:37.137Z,95501.44
2023-01-15T20:20:03.896Z,95508.13
2023-01-15T20:22:31.153Z,95505.31
2023-01-15T20:24:57.734Z,95509.34
2023-01-15T20:27:24.263Z,95509.03
2023-01-15T20:29:54.234Z,95514.69
2023-01-15T20:32:20.792Z,95507.78
2023-01-15T20:34:47.912Z,95517.88
2023-01-15T20:37:14.444Z,95515.41
2023-01-15T20:39:40.935Z,95510.22
2023-01-15T20:42:25.778Z,95512.16
2023-01-15T20:44:55.269Z,95519.25
2023-01-15T20:47:44.356Z,95523.00
2023-01-15T20:50:12.233Z,95514.56
2023-01-15T20:52:41.460Z,95524.28
2023-01-15T20:55:08.100Z,95525.66
2023-01-15T20:57:35.842Z,95522.81
2023-01-15T21:00:04.628Z,95525.91
2023-01-15T21:02:31.184Z,95531.03
2023-01-15T21:04:57.668Z,95535.31
2023-01-15T21:07:24.319Z,95533.50
2023-01-15T21:09:50.852Z,95530.19
2023-01-15T21:12:17.424Z,95530.06
2023-01-15T21:14:44.001Z,95530.19
2023-01-15T21:17:10.564Z,95531.31
2023-01-15T21:19:37.067Z,95528.69
2023-01-15T21:22:03.627Z,95520.41
2023-01-15T21:24:30.173Z,95515.34
2023-01-15T21:26:56.669Z,95498.22
2023-01-15T21:29:24.430Z,95491.53
2023-01-15T21:31:51.406Z,95491.75
2023-01-15T21:34:18.009Z,95501.84
2023-01-15T21:36:44.494Z,95504.13
2023-01-15T21:39:12.021Z,95503.28
2023-01-15T21:41:57.235Z,95498.03
2023-01-15T21:44:43.005Z,95493.88
2023-01-15T21:47:11.307Z,95511.91
2023-01-15T21:49:38.206Z,95520.28
2023-01-15T21:52:06.110Z,95513.19
2023-01-15T21:54:32.707Z,95508.06
2023-01-15T21:56:59.286Z,95511.41
2023-01-15T21:59:25.869Z,95499.34
2023-01-15T22:01:56.116Z,95491.84
2023-01-15T22:04:26.554Z,95497.53
2023-01-15T22:06:53.342Z,95483.53
2023-01-15T22:09:19.881Z,95479.38
2023-01-15T22:11:46.630Z,95476.44
2023-01-15T22:14:17.134Z,95469.50
2023-01-15T22:16:44.781Z,95470.66
2023-01-15T22:19:12.484Z,95470.91
2023-01-15T22:21:39.011Z,95466.44
2023-01-15T22:24:05.697Z,95457.84
2023-01-15T22:26:32.238Z,95445.13
2023-01-15T22:28:59.366Z,95444.63
2023-01-15T22:31:28.754Z,95436.94
2023-01-15T22:33:57.895Z,95436.94
2023-01-15T22:36:26.781Z,95445.22
2023-01-15T22:38:54.970Z,95445.38
2023-01-15T22:41:44.846Z,95450.00
2023-01-15T22:44:11.385Z,95443.88
2023-01-15T22:46:37.931Z,95445.69
2023-01-15T22:49:04.433Z,95440.13
2023-01-15T22:51:30.993Z,95445.25
2023-01-15T22:53:57.778Z,95433.59
2023-01-15T22:56:25.229Z,95449.00
2023-01-15T22:58:54.967Z,95446.25
2023-01-15T23:01:22.198Z,95446.00
2023-01-15T23:03:49.031Z,95452.13
2023-01-15T23:06:15.941Z,95443.47
2023-01-15T23:08:42.488Z,95445.28
2023-01-15T23:11:11.921Z,95444.31
2023-01-15T23:13:39.015Z,95431.72
2023-01-15T23:16:06.105Z,95431.44
2023-01-15T23:18:34.720Z,95431.19
2023-01-15T23:21:06.365Z,95431.47
2023-01-15T23:23:33.799Z,95432.00
2023-01-15T23:26:01.072Z,95412.88
2023-01-15T23:28:27.694Z,95412.31
2023-01-15T23:30:54.184Z,95418.03
2023-01-15T23:33:20.748Z,95426.53
2023-01-15T23:35:47.322Z,95429.00
2023-01-15T23:38:13.820Z,95438.19
2023-01-15T23:40:41.150Z,95432.47
2023-01-15T23:43:27.084Z,95441.88
2023-01-15T23:46:11.979Z,95437.88
2023-01-15T23:48:38.491Z,95420.66
2023-01-15T23:51:05.108Z,95420.41
2023-01-15T23:53:31.904Z,95410.91
2023-01-15T23:56:02.169Z,95413.00
2023-01-15T23:58:28.999Z,95410.81
